Terminal Aerodrome Forecast
Issued by NWS Cleveland, OH

Home | Current Version | Previous Version | Graphics & Text | Print | Product List | Glossary Off
Versions: 1 2 3 4 5 6 7 8 9 10 11 12 13 14 15 16 17 18 19

000
FTUS41 KCLE 240521
TAFCAK
TAF
KCAK 240521Z 2406/2506 01004KT 3SM -DZ BR OVC006
      TEMPO 2408/2412 1 1/2SM -DZ BR OVC003
     FM241600 33006KT 3SM BR OVC006=

USA.gov is the U.S. government's official web portal to all federal, state and local government web resources and services.